Time;durP1;ratioP1;P1;durP2;ratioP2;P2;SDS_P1;SDS_P2;PMS_P1;PMS_P2;Temp;Humidity;BMP_temperature;BMP_pressure;BME280_temperature;BME280_humidity;BME280_pressure;Samples;Min_cycle;Max_cycle;Signal;HPM_P1;HPM_P2
2021/12/01 00:01:41;;;;;;;56.07;23.87;;;8.20;99.90;;;;;;4957792;28;20162;-91
2021/12/01 00:04:07;;;;;;;53.30;22.13;;;9.20;99.90;;;;;;4956691;28;20500;-91
2021/12/01 00:06:41;;;;;;;53.07;22.83;;;8.70;99.90;;;;;;4957861;28;20038;-91
2021/12/01 00:09:10;;;;;;;47.83;20.70;;;8.80;99.90;;;;;;4964424;28;20051;-91
2021/12/01 00:11:36;;;;;;;47.20;23.77;;;9.00;99.90;;;;;;4980796;23;20035;-91
2021/12/01 00:16:48;;;;;;;50.23;22.30;;;9.10;99.90;;;;;;4927670;23;20147;-92
2021/12/01 00:21:56;;;;;;;49.40;22.33;;;8.80;99.90;;;;;;5020659;23;20113;-92
2021/12/01 00:24:27;;;;;;;41.87;22.97;;;9.40;99.90;;;;;;4962049;28;20074;-93
2021/12/01 00:27:02;;;;;;;43.90;23.27;;;9.00;99.90;;;;;;4961353;28;20089;-90
2021/12/01 00:29:50;;;;;;;39.67;20.70;;;8.70;99.90;;;;;;4961644;28;20039;-90
2021/12/01 00:32:34;;;;;;;46.27;23.63;;;8.90;99.90;;;;;;4960966;28;20519;-92
2021/12/01 00:35:13;;;;;;;41.88;22.02;;;8.80;99.90;;;;;;4975752;23;20394;-91
2021/12/01 00:37:54;;;;;;;41.87;22.10;;;8.90;99.90;;;;;;4971458;28;20062;-91
2021/12/01 00:40:32;;;;;;;43.90;23.03;;;9.60;99.90;;;;;;4970600;28;20085;-91
2021/12/01 00:43:17;;;;;;;40.77;22.63;;;7.90;99.90;;;;;;4951843;23;20054;-91
2021/12/01 00:46:00;;;;;;;38.80;21.53;;;8.60;99.90;;;;;;4957790;29;20051;-91
2021/12/01 00:48:29;;;;;;;34.67;21.20;;;8.70;99.90;;;;;;4958197;29;20036;-90
2021/12/01 00:51:04;;;;;;;37.23;22.00;;;8.80;99.90;;;;;;4957583;29;20054;-92
2021/12/01 00:53:43;;;;;;;39.37;23.20;;;8.90;99.90;;;;;;4963206;23;20023;-89
2021/12/01 00:56:09;;;;;;;41.13;24.33;;;9.80;99.90;;;;;;4957789;29;20053;-90
2021/12/01 00:58:44;;;;;;;40.27;23.97;;;9.40;99.90;;;;;;4967347;23;20047;-92
2021/12/01 01:01:35;;;;;;;37.50;21.90;;;7.80;99.90;;;;;;4960701;28;20407;-90
2021/12/01 01:04:09;;;;;;;39.17;23.63;;;8.60;99.90;;;;;;4960227;28;20054;-91
2021/12/01 01:06:54;;;;;;;39.20;23.77;;;9.60;99.90;;;;;;4969366;23;20106;-91
2021/12/01 01:09:19;;;;;;;37.80;23.27;;;9.00;99.90;;;;;;4921890;29;20043;-90
2021/12/01 01:18:28;;;;;;;35.93;22.43;;;9.00;99.90;;;;;;4957942;29;20419;-92
2021/12/01 01:21:10;;;;;;;39.47;22.93;;;9.10;99.90;;;;;;4939938;29;20066;-91
2021/12/01 01:23:48;;;;;;;38.27;21.80;;;8.90;99.90;;;;;;4941219;29;20055;-91
2021/12/01 01:26:18;;;;;;;38.60;22.60;;;9.00;99.90;;;;;;4941156;29;20082;-91
2021/12/01 01:28:44;;;;;;;43.23;23.90;;;8.90;99.90;;;;;;4939613;29;20043;-91
2021/12/01 01:31:10;;;;;;;39.10;22.50;;;9.90;99.90;;;;;;4941815;29;20043;-90
2021/12/01 01:33:50;;;;;;;42.03;23.97;;;8.80;99.90;;;;;;4941094;29;20055;-91
2021/12/01 01:36:41;;;;;;;41.90;22.70;;;9.30;99.90;;;;;;4943135;23;20051;-92
2021/12/01 01:39:10;;;;;;;42.73;22.47;;;8.90;99.90;;;;;;4922431;29;20052;-93
2021/12/01 01:41:52;;;;;;;40.60;21.60;;;8.80;99.90;;;;;;4933831;28;20034;-92
2021/12/01 01:44:43;;;;;;;46.00;22.23;;;7.80;99.90;;;;;;4987016;23;20047;-91
2021/12/01 01:47:09;;;;;;;40.53;21.13;;;9.00;99.90;;;;;;4960715;29;20121;-92
2021/12/01 01:54:50;;;;;;;38.70;19.87;;;9.00;99.90;;;;;;4962151;23;20058;-92
2021/12/01 01:57:18;;;;;;;34.10;19.27;;;8.70;99.90;;;;;;4940130;29;20050;-93
2021/12/01 01:59:52;;;;;;;31.27;17.57;;;8.90;99.90;;;;;;4940233;29;20061;-91
2021/12/01 02:02:33;;;;;;;32.60;17.57;;;8.00;99.90;;;;;;4978786;23;20571;-92
2021/12/01 02:05:25;;;;;;;35.53;18.80;;;9.10;99.90;;;;;;5009351;23;20036;-91
2021/12/01 02:07:54;;;;;;;30.57;17.57;;;9.20;99.90;;;;;;4910260;29;20408;-92
2021/12/01 02:10:22;;;;;;;29.10;16.93;;;8.90;99.90;;;;;;4922193;29;20135;-91
2021/12/01 02:12:48;;;;;;;33.50;17.80;;;8.90;99.90;;;;;;4938713;23;20055;-92
2021/12/01 02:15:16;;;;;;;35.30;18.10;;;9.00;99.90;;;;;;5035705;23;20075;-91
2021/12/01 02:17:45;;;;;;;30.80;17.13;;;8.70;99.90;;;;;;4923289;29;20183;-92
2021/12/01 02:20:21;;;;;;;32.43;17.97;;;9.00;99.90;;;;;;4921601;29;20055;-91
2021/12/01 02:23:00;;;;;;;34.90;18.23;;;8.90;99.90;;;;;;4921617;29;20055;-91
2021/12/01 02:25:28;;;;;;;29.27;15.30;;;10.60;99.90;;;;;;4920819;29;20055;-91
2021/12/01 02:27:57;;;;;;;28.47;13.93;;;8.90;99.90;;;;;;4921485;29;20048;-91
2021/12/01 02:30:23;;;;;;;28.80;14.27;;;9.40;99.90;;;;;;4934439;23;20060;-91
2021/12/01 02:32:51;;;;;;;29.63;14.43;;;9.40;99.90;;;;;;4916131;29;20059;-90
2021/12/01 02:35:17;;;;;;;26.83;14.13;;;9.10;99.90;;;;;;4917791;29;20048;-89
2021/12/01 02:37:52;;;;;;;26.10;13.00;;;9.10;99.90;;;;;;4917604;29;20409;-92
2021/12/01 02:40:20;;;;;;;26.97;12.97;;;9.20;99.90;;;;;;4917496;29;20051;-91
2021/12/01 02:42:58;;;;;;;28.33;13.23;;;9.70;99.90;;;;;;4917898;29;20056;-91
2021/12/01 02:45:30;;;;;;;26.80;12.87;;;10.00;99.90;;;;;;4917714;29;20056;-92
2021/12/01 02:48:04;;;;;;;22.70;11.43;;;9.00;99.90;;;;;;4917811;29;20048;-92
2021/12/01 02:50:47;;;;;;;23.57;11.57;;;10.20;99.90;;;;;;4929476;23;20080;-91
2021/12/01 02:53:24;;;;;;;22.95;10.98;;;9.90;99.90;;;;;;4920363;29;20178;-92
2021/12/01 02:56:06;;;;;;;22.63;11.10;;;8.90;99.90;;;;;;4920322;29;20047;-93
2021/12/01 02:58:42;;;;;;;22.57;10.23;;;9.10;99.90;;;;;;4920366;29;20094;-91
2021/12/01 03:01:16;;;;;;;19.70;9.50;;;9.20;99.90;;;;;;4928229;23;20051;-91
2021/12/01 03:03:43;;;;;;;20.43;9.30;;;8.90;99.90;;;;;;4964198;23;20055;-92
2021/12/01 03:06:27;;;;;;;17.10;8.27;;;9.00;99.90;;;;;;4964822;23;20098;-91
2021/12/01 03:08:54;;;;;;;;;;;9.20;99.90;;;;;;4957992;28;20201;-89
2021/12/01 03:11:40;;;;;;;17.03;7.60;;;10.00;99.90;;;;;;4976359;28;19918;-90
2021/12/01 03:14:16;;;;;;;14.90;6.83;;;9.30;99.90;;;;;;4957532;28;20051;-91
2021/12/01 03:16:44;;;;;;;12.23;5.67;;;10.30;99.90;;;;;;4927280;23;20049;-90
2021/12/01 03:19:19;;;;;;;13.33;5.90;;;9.30;99.90;;;;;;4897996;29;20048;-90
2021/12/01 03:21:48;;;;;;;11.17;5.00;;;9.10;99.90;;;;;;4897253;29;20247;-91
2021/12/01 03:24:19;;;;;;;10.30;4.53;;;8.70;99.90;;;;;;4897390;29;20048;-92
2021/12/01 03:26:47;;;;;;;11.53;4.97;;;9.30;99.90;;;;;;4897942;29;20045;-94
2021/12/01 03:29:19;;;;;;;10.87;5.03;;;9.00;99.90;;;;;;4897805;29;20056;-92
2021/12/01 03:31:45;;;;;;;12.23;5.23;;;9.90;99.90;;;;;;4897725;29;20048;-92
2021/12/01 03:34:22;;;;;;;10.40;5.20;;;9.30;99.90;;;;;;4897909;29;20045;-91
2021/12/01 03:37:39;;;;;;;11.00;5.03;;;10.40;99.90;;;;;;4944523;23;20066;-92
2021/12/01 03:40:28;;;;;;;10.63;4.60;;;8.80;99.90;;;;;;4953817;29;20109;-90
2021/12/01 03:43:03;;;;;;;13.18;5.10;;;9.40;99.90;;;;;;4953733;28;20373;-90
2021/12/01 03:45:38;;;;;;;13.07;6.30;;;9.10;99.90;;;;;;4953841;29;20043;-91
2021/12/01 03:48:13;;;;;;;11.07;5.60;;;9.80;99.90;;;;;;4954477;29;20126;-91
2021/12/01 03:50:59;;;;;;;12.33;5.53;;;9.90;99.90;;;;;;4954160;29;20051;-91
2021/12/01 03:53:45;;;;;;;11.90;6.03;;;9.70;99.90;;;;;;4954312;29;20038;-92
2021/12/01 03:56:20;;;;;;;11.77;6.17;;;9.20;99.90;;;;;;4952990;29;20052;-92
2021/12/01 03:59:03;;;;;;;11.63;5.90;;;9.60;99.90;;;;;;4960090;23;20051;-91
2021/12/01 04:01:29;;;;;;;10.95;5.80;;;8.90;99.90;;;;;;4984944;23;20050;-92
2021/12/01 04:04:00;;;;;;;11.17;5.77;;;9.10;99.90;;;;;;4952922;29;20067;-93
2021/12/01 04:06:38;;;;;;;11.37;5.90;;;9.10;99.90;;;;;;4955296;29;20097;-91
2021/12/01 04:12:00;;;;;;;10.53;5.17;;;9.40;99.90;;;;;;4961405;23;20059;-92
2021/12/01 04:14:37;;;;;;;10.73;5.65;;;9.70;99.90;;;;;;4955914;29;20051;-91
2021/12/01 04:17:06;;;;;;;10.90;5.57;;;9.30;99.90;;;;;;4954212;29;20551;-93
2021/12/01 04:19:47;;;;;;;13.03;6.13;;;9.60;99.90;;;;;;4954745;29;20047;-93
2021/12/01 04:22:25;;;;;;;14.30;8.70;;;9.70;99.90;;;;;;4954766;29;20504;-92
2021/12/01 04:24:51;;;;;;;14.40;8.97;;;9.70;99.90;;;;;;4953973;29;20039;-92
2021/12/01 04:27:25;;;;;;;11.53;5.40;;;9.40;99.90;;;;;;4954880;29;20491;-92
2021/12/01 04:29:57;;;;;;;11.37;5.30;;;9.10;99.90;;;;;;4954281;29;20047;-92
2021/12/01 04:32:25;;;;;;;11.00;5.37;;;9.40;99.90;;;;;;4953801;29;20050;-92
2021/12/01 04:34:51;;;;;;;11.10;4.47;;;9.60;99.90;;;;;;4955102;29;20120;-92
2021/12/01 04:37:19;;;;;;;10.23;4.60;;;9.50;99.90;;;;;;4955207;29;20085;-94
2021/12/01 04:39:56;;;;;;;10.83;4.27;;;9.70;99.90;;;;;;5048428;23;20047;-92
2021/12/01 04:43:12;;;;;;;9.00;3.97;;;9.50;99.90;;;;;;5068921;23;20039;-93
2021/12/01 04:45:42;;;;;;;8.93;3.23;;;9.00;99.90;;;;;;4948649;29;20359;-93
2021/12/01 04:48:08;;;;;;;8.10;3.17;;;9.90;99.90;;;;;;4938992;29;20047;-92
2021/12/01 04:50:36;;;;;;;8.67;3.33;;;9.00;99.90;;;;;;4937956;29;20055;-92
2021/12/01 04:55:54;;;;;;;8.27;3.43;;;9.00;99.90;;;;;;4985148;23;20066;-93
2021/12/01 04:58:25;;;;;;;7.97;3.30;;;8.80;99.90;;;;;;4941829;29;20062;-93
2021/12/01 05:00:51;;;;;;;8.40;3.27;;;9.30;99.90;;;;;;4936437;29;20039;-92
2021/12/01 05:05:45;;;;;;;8.00;3.27;;;8.90;99.90;;;;;;4984917;23;20070;-92
2021/12/01 05:08:10;;;;;;;8.30;3.00;;;9.60;99.90;;;;;;4992391;28;20082;-91
2021/12/01 05:10:44;;;;;;;8.63;3.50;;;8.70;99.90;;;;;;4960508;28;20760;-93
2021/12/01 05:13:10;;;;;;;7.80;2.97;;;9.80;99.90;;;;;;4960623;28;20059;-94
2021/12/01 05:15:35;;;;;;;7.77;3.17;;;8.70;99.90;;;;;;4960960;28;20101;-92
2021/12/01 05:18:08;;;;;;;8.23;3.10;;;8.60;99.90;;;;;;4960844;28;20458;-93
2021/12/01 05:20:58;;;;;;;8.10;3.35;;;8.90;99.90;;;;;;4960510;28;20043;-93
2021/12/01 05:23:23;;;;;;;8.43;3.57;;;8.60;99.90;;;;;;4925501;28;20063;-93
2021/12/01 05:25:55;;;;;;;8.13;3.23;;;9.10;99.90;;;;;;4960489;28;20090;-93
2021/12/01 05:28:21;;;;;;;9.33;3.40;;;8.30;99.90;;;;;;4960870;28;20046;-93
2021/12/01 05:30:53;;;;;;;7.80;3.00;;;8.90;99.90;;;;;;4961012;28;20047;-92
2021/12/01 05:33:29;;;;;;;8.13;3.30;;;9.10;99.90;;;;;;4960600;28;20042;-93
2021/12/01 05:35:55;;;;;;;8.20;3.27;;;9.80;99.90;;;;;;4959389;28;20050;-94
2021/12/01 05:38:21;;;;;;;8.60;3.80;;;8.90;99.90;;;;;;4949109;23;20058;-93
2021/12/01 05:40:49;;;;;;;8.80;3.80;;;8.40;99.90;;;;;;4925122;29;20043;-92
2021/12/01 05:43:16;;;;;;;9.03;4.03;;;8.50;99.90;;;;;;4923462;29;20055;-93
2021/12/01 05:45:42;;;;;;;8.70;3.93;;;9.10;99.90;;;;;;4923173;29;20047;-93
2021/12/01 05:48:08;;;;;;;7.90;3.30;;;8.30;99.90;;;;;;4924025;29;20040;-94
2021/12/01 05:50:34;;;;;;;9.17;3.47;;;;;;;;;;4923348;29;20409;-96
2021/12/01 05:53:00;;;;;;;8.37;3.40;;;8.40;99.90;;;;;;4922449;29;20507;-93
2021/12/01 05:55:51;;;;;;;9.10;3.67;;;9.80;99.90;;;;;;5042411;23;20039;-96
2021/12/01 05:58:17;;;;;;;8.70;3.50;;;8.40;99.90;;;;;;5090284;23;20080;-93
2021/12/01 06:00:43;;;;;;;8.47;3.50;;;8.60;99.90;;;;;;4939392;29;20044;-92
2021/12/01 06:03:09;;;;;;;8.20;3.53;;;8.50;99.90;;;;;;4939657;29;20048;-93
2021/12/01 06:05:36;;;;;;;9.80;4.80;;;7.70;99.90;;;;;;4958662;29;20036;-92
2021/12/01 06:08:02;;;;;;;8.57;3.50;;;8.70;99.90;;;;;;4945550;29;20056;-92
2021/12/01 06:13:02;;;;;;;9.20;4.07;;;8.30;99.90;;;;;;4982522;23;20129;-93
2021/12/01 06:15:31;;;;;;;8.53;3.70;;;8.00;99.90;;;;;;4978454;28;20069;-93
2021/12/01 06:17:59;;;;;;;7.97;3.30;;;7.80;99.90;;;;;;4976255;28;20105;-93
2021/12/01 06:20:26;;;;;;;8.77;3.73;;;7.90;99.90;;;;;;4978310;28;20047;-94
2021/12/01 06:22:52;;;;;;;8.30;3.73;;;7.90;99.90;;;;;;4977418;28;20396;-93
2021/12/01 06:25:18;;;;;;;8.73;3.70;;;8.90;99.90;;;;;;4977117;28;20110;-94
2021/12/01 06:27:44;;;;;;;9.17;3.70;;;8.40;99.90;;;;;;4978692;28;20443;-95
2021/12/01 06:30:12;;;;;;;10.40;4.60;;;9.50;99.90;;;;;;5013682;23;20063;-94
2021/12/01 06:32:38;;;;;;;9.43;4.40;;;8.20;99.90;;;;;;4945876;23;20141;-95
2021/12/01 06:35:04;;;;;;;9.23;4.17;;;8.50;99.90;;;;;;4943742;29;20559;-94
2021/12/01 06:37:30;;;;;;;9.10;4.33;;;8.20;99.90;;;;;;4944676;23;20469;-93
2021/12/01 06:39:59;;;;;;;9.77;4.57;;;9.10;99.90;;;;;;4922462;29;20102;-92
2021/12/01 06:42:51;;;;;;;9.10;4.13;;;8.60;99.90;;;;;;4944892;23;20066;-94
2021/12/01 06:45:21;;;;;;;9.37;4.40;;;8.20;99.90;;;;;;4940313;29;20471;-94
2021/12/01 06:47:47;;;;;;;9.70;4.70;;;8.10;99.90;;;;;;4941011;29;20122;-93
2021/12/01 06:50:23;;;;;;;9.47;4.27;;;8.00;99.90;;;;;;4940437;29;20125;-93
2021/12/01 06:52:54;;;;;;;9.07;4.13;;;7.60;99.90;;;;;;4939483;29;20058;-94
2021/12/01 06:55:21;;;;;;;9.13;4.20;;;8.10;99.90;;;;;;4939827;29;20506;-90
2021/12/01 06:57:50;;;;;;;10.27;4.67;;;7.90;99.90;;;;;;4938234;29;20039;-87
2021/12/01 07:03:05;;;;;;;8.40;3.93;;;8.20;99.90;;;;;;4939367;29;20138;-87
2021/12/01 07:05:39;;;;;;;9.30;4.10;;;8.70;99.90;;;;;;4938578;29;20150;-87
2021/12/01 07:08:05;;;;;;;9.00;4.28;;;8.70;99.90;;;;;;4938423;29;20043;-87
2021/12/01 07:10:37;;;;;;;9.50;4.40;;;7.90;99.90;;;;;;4939188;29;20049;-87
2021/12/01 07:13:03;;;;;;;8.50;3.70;;;8.70;99.90;;;;;;4938252;29;20373;-87
2021/12/01 07:15:28;;;;;;;9.93;4.47;;;8.40;99.90;;;;;;4938914;29;20200;-86
2021/12/01 07:17:59;;;;;;;8.80;3.63;;;8.00;99.90;;;;;;4938265;29;20057;-86
2021/12/01 07:20:31;;;;;;;8.63;3.80;;;8.10;99.90;;;;;;4938479;29;20420;-86
2021/12/01 07:23:05;;;;;;;8.37;3.80;;;7.80;99.90;;;;;;4938744;29;20055;-86
2021/12/01 07:25:32;;;;;;;9.00;4.00;;;7.80;99.90;;;;;;4937873;29;20035;-86
2021/12/01 07:27:59;;;;;;;9.30;4.07;;;8.50;99.90;;;;;;4937884;29;20039;-85
2021/12/01 07:30:27;;;;;;;8.37;3.80;;;8.20;99.90;;;;;;4939071;29;20048;-86
2021/12/01 07:32:59;;;;;;;8.60;3.80;;;8.10;99.90;;;;;;4938853;29;20055;-86
2021/12/01 07:35:32;;;;;;;8.77;4.03;;;8.10;99.90;;;;;;4937761;29;20126;-86
2021/12/01 07:38:00;;;;;;;8.63;3.70;;;8.70;99.90;;;;;;4942936;29;20047;-87
2021/12/01 07:40:35;;;;;;;8.87;3.70;;;8.50;99.90;;;;;;4952129;29;20054;-85
2021/12/01 07:43:01;;;;;;;7.80;3.40;;;8.30;99.90;;;;;;4942319;29;20059;-86
2021/12/01 07:45:35;;;;;;;8.47;3.43;;;8.70;99.90;;;;;;4938848;29;20183;-86
2021/12/01 07:48:09;;;;;;;8.13;3.37;;;8.00;99.90;;;;;;4938000;29;20066;-87
2021/12/01 07:50:38;;;;;;;7.73;3.33;;;8.00;99.90;;;;;;4947079;28;20054;-90
2021/12/01 07:53:10;;;;;;;7.90;3.20;;;7.50;99.90;;;;;;4943268;29;20063;-86
2021/12/01 07:55:39;;;;;;;8.63;3.57;;;7.90;99.90;;;;;;4939011;29;20400;-86
2021/12/01 08:05:30;;;;;;;8.63;3.73;;;8.10;99.90;;;;;;4959118;28;20411;-87
2021/12/01 08:08:01;;;;;;;7.87;3.40;;;9.00;99.90;;;;;;4956598;28;20175;-87
2021/12/01 08:10:58;;;;;;;9.03;3.60;;;8.40;99.90;;;;;;4975472;23;20348;-87
2021/12/01 08:13:25;;;;;;;8.47;4.13;;;8.00;99.90;;;;;;4937680;29;20090;-86
2021/12/01 08:15:51;;;;;;;8.80;3.93;;;8.40;99.90;;;;;;4937635;29;20074;-88
2021/12/01 08:18:27;;;;;;;8.80;4.40;;;8.70;99.90;;;;;;4937042;29;20082;-86
2021/12/01 08:21:18;;;;;;;8.53;4.00;;;8.20;99.90;;;;;;4947316;23;20050;-87
2021/12/01 08:24:24;;;;;;;11.33;5.90;;;8.10;99.90;;;;;;4936896;29;20141;-86
2021/12/01 08:26:55;;;;;;;8.90;4.53;;;7.70;99.90;;;;;;4922609;29;20059;-86
2021/12/01 08:29:26;;;;;;;8.53;4.13;;;8.90;99.90;;;;;;4937510;29;20050;-86
2021/12/01 08:32:18;;;;;;;9.63;4.80;;;8.10;99.90;;;;;;4939807;29;20142;-87
2021/12/01 08:34:55;;;;;;;12.57;7.63;;;8.40;99.90;;;;;;4941165;29;20069;-88
2021/12/01 08:37:33;;;;;;;19.73;13.23;;;9.00;99.90;;;;;;4939815;29;20054;-87
2021/12/01 08:40:56;;;;;;;11.27;6.10;;;8.10;99.90;;;;;;4959034;29;20050;-90
2021/12/01 08:43:21;;;;;;;11.50;6.13;;;8.40;99.90;;;;;;4958551;29;20046;-87
2021/12/01 08:45:57;;;;;;;18.83;8.33;;;8.10;99.90;;;;;;4957246;29;20051;-88
2021/12/01 08:48:23;;;;;;;10.53;4.83;;;9.10;99.90;;;;;;4941073;29;20381;-90
2021/12/01 08:50:51;;;;;;;8.50;4.03;;;8.40;99.90;;;;;;4941235;29;20070;-89
2021/12/01 08:53:17;;;;;;;8.60;3.93;;;9.50;99.90;;;;;;4940762;29;20070;-88
2021/12/01 08:55:44;;;;;;;8.57;3.90;;;8.50;99.90;;;;;;4941655;29;20043;-88
2021/12/01 08:58:14;;;;;;;10.33;4.70;;;9.50;99.90;;;;;;4941272;29;20050;-91
2021/12/01 09:00:45;;;;;;;9.60;4.00;;;9.10;99.90;;;;;;4942005;29;20378;-90
2021/12/01 09:03:16;;;;;;;9.67;4.37;;;9.10;99.90;;;;;;4941618;29;20106;-90
2021/12/01 09:05:43;;;;;;;9.00;4.00;;;8.30;99.90;;;;;;4957204;29;20048;-88
2021/12/01 09:08:08;;;;;;;9.77;5.10;;;9.00;99.90;;;;;;4940690;29;20411;-90
2021/12/01 09:10:35;;;;;;;10.33;4.87;;;9.30;99.90;;;;;;4941509;29;20047;-90
2021/12/01 09:13:03;;;;;;;10.97;5.67;;;8.50;99.90;;;;;;4972866;28;20071;-89
2021/12/01 09:15:28;;;;;;;10.87;5.33;;;8.40;99.90;;;;;;4941712;29;20055;-90
2021/12/01 09:17:55;;;;;;;11.57;6.33;;;8.70;99.90;;;;;;4940997;29;20102;-88
2021/12/01 09:20:21;;;;;;;10.60;5.53;;;8.30;99.90;;;;;;4939985;29;20126;-88
2021/12/01 09:23:03;;;;;;;8.40;3.50;;;8.40;99.90;;;;;;4940546;29;20207;-90
2021/12/01 09:25:29;;;;;;;8.23;3.00;;;8.30;99.90;;;;;;4940771;29;20492;-89
2021/12/01 09:27:55;;;;;;;8.43;3.00;;;8.90;99.90;;;;;;4940260;29;20062;-89
2021/12/01 09:30:21;;;;;;;12.43;7.40;;;8.50;99.90;;;;;;4941571;29;20059;-89
2021/12/01 09:32:49;;;;;;;10.63;3.53;;;8.40;99.90;;;;;;4941937;29;20058;-90
2021/12/01 09:35:17;;;;;;;12.47;7.13;;;8.60;99.90;;;;;;4940405;29;20055;-91
2021/12/01 09:37:43;;;;;;;11.63;5.13;;;8.80;99.90;;;;;;4941781;29;20058;-88
2021/12/01 09:40:13;;;;;;;11.10;3.50;;;8.50;99.90;;;;;;4940465;29;20036;-89
2021/12/01 09:42:52;;;;;;;11.00;2.93;;;8.60;99.90;;;;;;4971382;28;20083;-87
2021/12/01 09:45:21;;;;;;;13.37;3.57;;;9.40;99.90;;;;;;4983011;28;20063;-88
2021/12/01 09:47:47;;;;;;;9.53;2.87;;;9.50;99.90;;;;;;4965649;29;20110;-89
2021/12/01 09:50:14;;;;;;;8.90;2.60;;;8.70;99.90;;;;;;4940728;29;20071;-91
2021/12/01 09:52:40;;;;;;;11.50;3.17;;;8.50;99.90;;;;;;4940769;29;20075;-90
2021/12/01 09:55:07;;;;;;;9.67;3.10;;;8.60;99.90;;;;;;4967947;29;20056;-87
2021/12/01 09:57:33;;;;;;;9.53;2.83;;;8.00;99.90;;;;;;4948568;29;20047;-87
2021/12/01 09:59:59;;;;;;;13.67;2.50;;;8.70;99.90;;;;;;4940100;29;20043;-90
2021/12/01 10:02:25;;;;;;;10.47;2.67;;;9.10;99.90;;;;;;4940260;29;20043;-88
2021/12/01 10:04:52;;;;;;;10.50;2.50;;;8.50;99.90;;;;;;4939948;29;20051;-88
2021/12/01 10:07:33;;;;;;;9.23;2.10;;;9.10;99.90;;;;;;4940546;29;20043;-88
2021/12/01 10:10:09;;;;;;;9.37;2.10;;;8.50;99.90;;;;;;4955567;29;20062;-88
2021/12/01 10:12:50;;;;;;;12.33;2.60;;;8.70;99.90;;;;;;4940692;29;20046;-90
2021/12/01 10:15:31;;;;;;;9.33;3.13;;;8.60;99.90;;;;;;4940873;29;20047;-90
2021/12/01 10:18:26;;;;;;;12.50;2.43;;;8.30;99.90;;;;;;4939197;29;20079;-88
2021/12/01 10:21:09;;;;;;;11.20;2.17;;;8.50;99.90;;;;;;4939281;29;20051;-88
2021/12/01 10:23:37;;;;;;;11.03;3.10;;;8.20;99.90;;;;;;4956976;29;20126;-91
2021/12/01 10:26:08;;;;;;;8.87;1.90;;;8.30;99.90;;;;;;4939849;29;20130;-88
2021/12/01 10:28:47;;;;;;;12.27;2.43;;;8.10;99.90;;;;;;4940274;29;20074;-89
2021/12/01 10:31:14;;;;;;;9.27;2.17;;;8.30;99.90;;;;;;4956347;29;20158;-88
2021/12/01 10:33:40;;;;;;;9.53;2.17;;;7.90;99.90;;;;;;4957303;29;20086;-88
2021/12/01 10:36:10;;;;;;;8.47;2.10;;;8.30;99.90;;;;;;4972626;28;20075;-90
2021/12/01 10:38:41;;;;;;;8.53;2.17;;;8.20;99.90;;;;;;4963926;29;20083;-87
2021/12/01 10:41:12;;;;;;;9.47;2.30;;;8.20;99.90;;;;;;4951937;29;20062;-89
2021/12/01 10:43:47;;;;;;;8.07;1.90;;;8.30;99.90;;;;;;4940792;29;20454;-89
2021/12/01 10:46:20;;;;;;;8.83;2.23;;;8.60;99.90;;;;;;4940516;29;20055;-87
2021/12/01 10:49:02;;;;;;;8.65;1.80;;;8.30;99.90;;;;;;4939382;29;20043;-87
2021/12/01 10:51:36;;;;;;;22.07;10.10;;;9.20;99.90;;;;;;4938881;29;20043;-91
2021/12/01 10:54:02;;;;;;;28.67;13.93;;;8.40;99.90;;;;;;4938385;29;20054;-89
2021/12/01 10:56:28;;;;;;;14.60;6.67;;;8.40;99.90;;;;;;4939263;29;20070;-89
2021/12/01 10:59:08;;;;;;;15.00;3.13;;;8.40;99.90;;;;;;4938687;29;20412;-88
2021/12/01 11:01:33;;;;;;;10.80;3.70;;;8.70;99.90;;;;;;4939551;29;20047;-88
2021/12/01 11:03:59;;;;;;;12.43;2.60;;;8.30;99.90;;;;;;4938986;29;20045;-87
2021/12/01 11:06:39;;;;;;;10.60;2.40;;;8.20;99.90;;;;;;4937992;29;20040;-89
2021/12/01 11:09:05;;;;;;;12.20;1.90;;;8.40;99.90;;;;;;4938919;29;20063;-88
2021/12/01 11:11:47;;;;;;;12.57;3.10;;;8.40;99.90;;;;;;4938697;29;20050;-88
2021/12/01 11:14:17;;;;;;;17.37;4.07;;;8.40;99.90;;;;;;4938380;29;20054;-90
2021/12/01 11:16:44;;;;;;;11.77;3.53;;;8.40;99.90;;;;;;4939311;29;20369;-87
2021/12/01 11:19:12;;;;;;;9.87;2.93;;;9.20;99.90;;;;;;4937909;29;20249;-91
2021/12/01 11:21:39;;;;;;;17.07;7.10;;;9.40;99.90;;;;;;4938221;29;20146;-86
2021/12/01 11:24:29;;;;;;;28.73;19.27;;;8.60;99.90;;;;;;4938508;29;20043;-82
2021/12/01 11:26:54;;;;;;;14.27;4.70;;;8.30;99.90;;;;;;4937258;29;20391;-84
2021/12/01 11:29:22;;;;;;;12.50;3.23;;;8.70;99.90;;;;;;4955179;29;20051;-85
2021/12/01 11:31:47;;;;;;;14.07;3.60;;;8.60;99.90;;;;;;4937615;29;20051;-84
2021/12/01 11:34:15;;;;;;;13.97;2.93;;;9.70;99.90;;;;;;4954820;29;20043;-83
2021/12/01 11:36:52;;;;;;;12.53;3.20;;;8.70;99.90;;;;;;4954988;29;20109;-84
2021/12/01 11:39:26;;;;;;;13.73;3.40;;;8.90;99.90;;;;;;4941995;29;20027;-85
2021/12/01 11:41:54;;;;;;;12.33;2.87;;;8.90;99.90;;;;;;4937243;29;20051;-84
2021/12/01 11:44:20;;;;;;;14.03;3.67;;;8.90;99.90;;;;;;4937887;29;20042;-84
2021/12/01 11:46:50;;;;;;;13.07;3.03;;;8.90;99.90;;;;;;4937608;29;20499;-85
2021/12/01 11:49:18;;;;;;;13.33;3.03;;;8.80;99.90;;;;;;4972835;28;20051;-84
2021/12/01 11:51:49;;;;;;;13.37;2.73;;;8.80;99.90;;;;;;4955257;29;20047;-84
2021/12/01 11:54:19;;;;;;;16.07;3.43;;;8.80;99.90;;;;;;4954075;29;20043;-83
2021/12/01 11:56:48;;;;;;;13.13;2.43;;;8.80;99.90;;;;;;4936721;29;20082;-84
2021/12/01 11:59:16;;;;;;;13.37;2.90;;;8.80;99.90;;;;;;4938044;29;20388;-85
2021/12/01 12:01:44;;;;;;;13.40;2.67;;;8.80;99.90;;;;;;4936840;29;20078;-84
2021/12/01 12:04:12;;;;;;;15.17;3.13;;;8.80;99.90;;;;;;4969072;28;20130;-83
2021/12/01 12:06:47;;;;;;;14.63;3.40;;;8.70;99.90;;;;;;4937066;29;20039;-82
2021/12/01 12:09:18;;;;;;;12.83;2.67;;;8.50;99.90;;;;;;4934745;29;20058;-83
2021/12/01 12:11:50;;;;;;;13.33;3.23;;;8.80;99.90;;;;;;4953577;29;20043;-82
2021/12/01 12:14:21;;;;;;;17.67;2.43;;;8.80;99.90;;;;;;4936512;29;20043;-83
2021/12/01 12:17:02;;;;;;;15.77;2.87;;;8.70;99.90;;;;;;4950912;29;20436;-83
2021/12/01 12:19:43;;;;;;;13.57;3.20;;;8.80;99.90;;;;;;4950931;29;20126;-82
2021/12/01 12:22:09;;;;;;;12.83;2.97;;;8.70;99.90;;;;;;4935783;29;20103;-82
2021/12/01 12:24:44;;;;;;;14.07;2.60;;;8.70;99.90;;;;;;4934655;29;20177;-82
2021/12/01 12:27:31;;;;;;;13.33;2.90;;;8.70;99.90;;;;;;4937152;29;20392;-84
2021/12/01 12:29:59;;;;;;;16.63;2.83;;;8.70;99.90;;;;;;4952294;29;20043;-82
2021/12/01 12:32:29;;;;;;;17.33;3.70;;;8.60;99.90;;;;;;4953980;29;20067;-83
2021/12/01 12:35:00;;;;;;;14.30;3.20;;;8.60;99.90;;;;;;4936479;29;20073;-82
2021/12/01 12:37:32;;;;;;;14.40;3.03;;;8.50;99.90;;;;;;4933977;29;20095;-83
2021/12/01 12:39:59;;;;;;;12.13;3.20;;;8.40;99.90;;;;;;4935238;29;20102;-83
2021/12/01 12:42:26;;;;;;;13.97;2.67;;;8.40;99.90;;;;;;4936144;29;20031;-84
2021/12/01 12:44:54;;;;;;;12.50;3.20;;;8.40;99.90;;;;;;4935580;29;20098;-83
2021/12/01 12:47:23;;;;;;;12.53;2.93;;;8.40;99.90;;;;;;4936615;29;20075;-84
2021/12/01 12:50:20;;;;;;;12.93;2.87;;;8.40;99.90;;;;;;4936899;29;20047;-83
2021/12/01 12:52:50;;;;;;;13.50;2.80;;;8.40;99.90;;;;;;4936753;29;20051;-84
2021/12/01 12:55:16;;;;;;;14.50;2.93;;;8.40;99.90;;;;;;4936923;29;20050;-85
2021/12/01 12:57:59;;;;;;;15.70;2.80;;;8.40;99.90;;;;;;4967809;28;20404;-83
2021/12/01 13:00:31;;;;;;;16.27;2.90;;;8.30;99.90;;;;;;4936937;29;20047;-85
2021/12/01 13:03:00;;;;;;;13.10;3.07;;;8.30;99.90;;;;;;4936644;29;20480;-83
2021/12/01 13:05:38;;;;;;;13.07;2.97;;;8.30;99.90;;;;;;4953678;29;20395;-86
2021/12/01 13:08:37;;;;;;;14.33;2.93;;;8.20;99.90;;;;;;4936564;29;20058;-83
2021/12/01 13:11:04;;;;;;;15.87;2.93;;;8.30;99.90;;;;;;4954057;29;20122;-84
2021/12/01 13:13:36;;;;;;;14.77;3.10;;;8.90;99.90;;;;;;4936252;29;20059;-84
2021/12/01 13:16:04;;;;;;;12.40;2.93;;;8.30;99.90;;;;;;4954130;28;20055;-83
2021/12/01 13:18:33;;;;;;;14.97;3.17;;;8.30;99.90;;;;;;4955263;29;20055;-86
2021/12/01 13:21:07;;;;;;;15.47;3.43;;;8.30;99.90;;;;;;4940001;29;20058;-86
2021/12/01 13:23:41;;;;;;;12.93;3.13;;;8.30;99.90;;;;;;4940407;29;20047;-86
2021/12/01 13:26:22;;;;;;;13.77;3.33;;;8.20;99.90;;;;;;4939383;29;20054;-81
2021/12/01 13:29:05;;;;;;;12.43;2.67;;;8.20;99.90;;;;;;4957486;29;20039;-88
2021/12/01 13:31:42;;;;;;;13.73;2.70;;;8.20;99.90;;;;;;4940654;29;20093;-86
2021/12/01 13:34:20;;;;;;;15.90;3.17;;;8.20;99.90;;;;;;4958994;29;20050;-85
2021/12/01 13:36:49;;;;;;;13.47;2.40;;;8.10;99.90;;;;;;4947166;29;20129;-86
2021/12/01 13:39:24;;;;;;;13.47;2.87;;;7.90;99.90;;;;;;4951972;29;20047;-86
2021/12/01 13:41:55;;;;;;;12.80;2.23;;;7.70;99.90;;;;;;4938997;29;20083;-85
2021/12/01 13:44:36;;;;;;;12.00;2.57;;;7.40;99.90;;;;;;4943045;29;20104;-86
2021/12/01 13:47:26;;;;;;;12.27;2.37;;;7.20;99.90;;;;;;4938575;29;20039;-84
2021/12/01 13:49:53;;;;;;;11.73;2.83;;;7.00;99.90;;;;;;4939783;29;20062;-82
2021/12/01 13:52:30;;;;;;;16.53;2.90;;;7.00;99.90;;;;;;4939775;29;20127;-83
2021/12/01 13:55:15;;;;;;;12.67;2.77;;;7.00;99.90;;;;;;4970848;28;20513;-84